sensor_id;sensor_type;location;lat;lon;timestamp;P1;durP1;ratioP1;P2;durP2;ratioP2
18166;SDS011;9208;42.688;23.404;2023-05-07T00:02:20;6.73;;;6.03;;
18166;SDS011;9208;42.688;23.404;2023-05-07T00:04:46;6.07;;;5.53;;
18166;SDS011;9208;42.688;23.404;2023-05-07T00:07:11;7.43;;;5.53;;
18166;SDS011;9208;42.688;23.404;2023-05-07T00:09:37;6.30;;;5.70;;
18166;SDS011;9208;42.688;23.404;2023-05-07T00:12:02;6.40;;;5.80;;
18166;SDS011;9208;42.688;23.404;2023-05-07T00:14:28;6.33;;;5.73;;
18166;SDS011;9208;42.688;23.404;2023-05-07T00:16:53;5.77;;;5.27;;
18166;SDS011;9208;42.688;23.404;2023-05-07T00:19:20;6.20;;;5.70;;
18166;SDS011;9208;42.688;23.404;2023-05-07T00:21:45;7.33;;;6.57;;
18166;SDS011;9208;42.688;23.404;2023-05-07T00:24:11;7.03;;;6.30;;
18166;SDS011;9208;42.688;23.404;2023-05-07T00:26:36;7.50;;;6.80;;
18166;SDS011;9208;42.688;23.404;2023-05-07T00:29:02;8.63;;;7.60;;
18166;SDS011;9208;42.688;23.404;2023-05-07T00:31:27;8.37;;;6.93;;
18166;SDS011;9208;42.688;23.404;2023-05-07T00:33:52;8.37;;;6.80;;
18166;SDS011;9208;42.688;23.404;2023-05-07T00:36:18;6.13;;;5.50;;
18166;SDS011;9208;42.688;23.404;2023-05-07T00:38:43;6.60;;;5.90;;
18166;SDS011;9208;42.688;23.404;2023-05-07T00:41:09;6.27;;;5.77;;
18166;SDS011;9208;42.688;23.404;2023-05-07T00:43:34;7.00;;;6.30;;
18166;SDS011;9208;42.688;23.404;2023-05-07T00:45:59;7.13;;;6.43;;
18166;SDS011;9208;42.688;23.404;2023-05-07T00:48:26;6.97;;;6.27;;
18166;SDS011;9208;42.688;23.404;2023-05-07T00:50:51;6.90;;;6.20;;
18166;SDS011;9208;42.688;23.404;2023-05-07T00:53:17;7.23;;;5.80;;
18166;SDS011;9208;42.688;23.404;2023-05-07T00:55:43;7.03;;;6.33;;
18166;SDS011;9208;42.688;23.404;2023-05-07T00:58:08;8.27;;;6.60;;
18166;SDS011;9208;42.688;23.404;2023-05-07T01:00:34;10.73;;;6.80;;
18166;SDS011;9208;42.688;23.404;2023-05-07T01:03:00;7.60;;;6.90;;
18166;SDS011;9208;42.688;23.404;2023-05-07T01:05:26;6.93;;;6.23;;
18166;SDS011;9208;42.688;23.404;2023-05-07T01:07:53;6.83;;;6.07;;
18166;SDS011;9208;42.688;23.404;2023-05-07T01:10:20;6.80;;;6.20;;
18166;SDS011;9208;42.688;23.404;2023-05-07T01:12:47;6.13;;;5.53;;
18166;SDS011;9208;42.688;23.404;2023-05-07T01:15:14;6.23;;;5.63;;
18166;SDS011;9208;42.688;23.404;2023-05-07T01:17:40;6.27;;;5.57;;
18166;SDS011;9208;42.688;23.404;2023-05-07T01:20:07;5.83;;;5.33;;
18166;SDS011;9208;42.688;23.404;2023-05-07T01:22:38;8.23;;;6.27;;
18166;SDS011;9208;42.688;23.404;2023-05-07T01:25:04;7.67;;;5.90;;
18166;SDS011;9208;42.688;23.404;2023-05-07T01:27:31;6.63;;;6.03;;
18166;SDS011;9208;42.688;23.404;2023-05-07T01:29:58;6.33;;;5.63;;
18166;SDS011;9208;42.688;23.404;2023-05-07T01:32:27;6.57;;;5.80;;
18166;SDS011;9208;42.688;23.404;2023-05-07T01:35:05;7.40;;;6.80;;
18166;SDS011;9208;42.688;23.404;2023-05-07T01:37:34;7.47;;;5.63;;
18166;SDS011;9208;42.688;23.404;2023-05-07T01:40:01;5.57;;;5.07;;
18166;SDS011;9208;42.688;23.404;2023-05-07T01:42:28;6.47;;;5.60;;
18166;SDS011;9208;42.688;23.404;2023-05-07T01:44:54;6.23;;;5.63;;
18166;SDS011;9208;42.688;23.404;2023-05-07T01:47:20;5.53;;;5.00;;
18166;SDS011;9208;42.688;23.404;2023-05-07T01:49:46;6.20;;;5.57;;
18166;SDS011;9208;42.688;23.404;2023-05-07T01:52:11;6.27;;;5.77;;
18166;SDS011;9208;42.688;23.404;2023-05-07T01:54:37;6.27;;;5.67;;
18166;SDS011;9208;42.688;23.404;2023-05-07T01:57:03;10.20;;;6.10;;
18166;SDS011;9208;42.688;23.404;2023-05-07T01:59:28;7.07;;;6.27;;
18166;SDS011;9208;42.688;23.404;2023-05-07T02:01:54;7.00;;;6.23;;
18166;SDS011;9208;42.688;23.404;2023-05-07T02:04:19;9.07;;;5.80;;
18166;SDS011;9208;42.688;23.404;2023-05-07T02:06:45;6.97;;;5.70;;
18166;SDS011;9208;42.688;23.404;2023-05-07T02:09:11;6.87;;;6.17;;
18166;SDS011;9208;42.688;23.404;2023-05-07T02:11:36;6.53;;;5.83;;
18166;SDS011;9208;42.688;23.404;2023-05-07T02:14:02;6.20;;;5.67;;
18166;SDS011;9208;42.688;23.404;2023-05-07T02:16:27;8.23;;;6.50;;
18166;SDS011;9208;42.688;23.404;2023-05-07T02:18:52;7.33;;;6.50;;
18166;SDS011;9208;42.688;23.404;2023-05-07T02:21:18;6.07;;;5.47;;
18166;SDS011;9208;42.688;23.404;2023-05-07T02:23:43;6.83;;;6.13;;
18166;SDS011;9208;42.688;23.404;2023-05-07T02:26:10;6.90;;;6.20;;
18166;SDS011;9208;42.688;23.404;2023-05-07T02:28:36;6.97;;;6.27;;
18166;SDS011;9208;42.688;23.404;2023-05-07T02:31:04;6.93;;;6.23;;
18166;SDS011;9208;42.688;23.404;2023-05-07T02:33:30;7.57;;;5.60;;
18166;SDS011;9208;42.688;23.404;2023-05-07T02:35:56;7.03;;;6.23;;
18166;SDS011;9208;42.688;23.404;2023-05-07T02:38:21;7.10;;;6.47;;
18166;SDS011;9208;42.688;23.404;2023-05-07T02:40:47;6.80;;;6.20;;
18166;SDS011;9208;42.688;23.404;2023-05-07T02:43:12;7.20;;;6.47;;
18166;SDS011;9208;42.688;23.404;2023-05-07T02:45:38;7.13;;;6.47;;
18166;SDS011;9208;42.688;23.404;2023-05-07T02:48:04;7.17;;;6.40;;
18166;SDS011;9208;42.688;23.404;2023-05-07T02:50:31;7.90;;;7.20;;
18166;SDS011;9208;42.688;23.404;2023-05-07T02:52:57;7.17;;;6.47;;
18166;SDS011;9208;42.688;23.404;2023-05-07T02:55:23;7.37;;;6.67;;
18166;SDS011;9208;42.688;23.404;2023-05-07T02:57:49;8.93;;;6.73;;
18166;SDS011;9208;42.688;23.404;2023-05-07T03:00:15;8.70;;;7.80;;
18166;SDS011;9208;42.688;23.404;2023-05-07T03:02:44;8.97;;;7.83;;
18166;SDS011;9208;42.688;23.404;2023-05-07T03:05:10;9.13;;;7.10;;
18166;SDS011;9208;42.688;23.404;2023-05-07T03:07:36;10.17;;;7.53;;
18166;SDS011;9208;42.688;23.404;2023-05-07T03:10:02;8.73;;;7.93;;
18166;SDS011;9208;42.688;23.404;2023-05-07T03:12:28;8.77;;;7.97;;
18166;SDS011;9208;42.688;23.404;2023-05-07T03:14:53;9.23;;;8.33;;
18166;SDS011;9208;42.688;23.404;2023-05-07T03:17:20;8.83;;;7.93;;
18166;SDS011;9208;42.688;23.404;2023-05-07T03:19:45;9.27;;;8.37;;
18166;SDS011;9208;42.688;23.404;2023-05-07T03:22:11;9.00;;;8.10;;
18166;SDS011;9208;42.688;23.404;2023-05-07T03:24:36;9.53;;;8.53;;
18166;SDS011;9208;42.688;23.404;2023-05-07T03:27:01;9.33;;;8.30;;
18166;SDS011;9208;42.688;23.404;2023-05-07T03:29:27;10.30;;;9.30;;
18166;SDS011;9208;42.688;23.404;2023-05-07T03:31:52;9.47;;;8.37;;
18166;SDS011;9208;42.688;23.404;2023-05-07T03:34:19;9.77;;;8.83;;
18166;SDS011;9208;42.688;23.404;2023-05-07T03:36:48;11.00;;;9.90;;
18166;SDS011;9208;42.688;23.404;2023-05-07T03:39:13;11.13;;;10.03;;
18166;SDS011;9208;42.688;23.404;2023-05-07T03:41:39;13.03;;;10.10;;
18166;SDS011;9208;42.688;23.404;2023-05-07T03:44:05;10.73;;;9.63;;
18166;SDS011;9208;42.688;23.404;2023-05-07T03:46:31;11.00;;;9.63;;
18166;SDS011;9208;42.688;23.404;2023-05-07T03:48:57;10.80;;;9.70;;
18166;SDS011;9208;42.688;23.404;2023-05-07T03:51:23;10.70;;;9.53;;
18166;SDS011;9208;42.688;23.404;2023-05-07T03:53:49;10.87;;;9.60;;
18166;SDS011;9208;42.688;23.404;2023-05-07T03:56:17;10.03;;;8.80;;
18166;SDS011;9208;42.688;23.404;2023-05-07T03:58:43;10.67;;;9.67;;
18166;SDS011;9208;42.688;23.404;2023-05-07T04:01:08;10.77;;;9.67;;
18166;SDS011;9208;42.688;23.404;2023-05-07T04:03:33;12.80;;;10.83;;
18166;SDS011;9208;42.688;23.404;2023-05-07T04:05:59;11.80;;;10.60;;
18166;SDS011;9208;42.688;23.404;2023-05-07T04:08:24;12.23;;;10.93;;
18166;SDS011;9208;42.688;23.404;2023-05-07T04:10:54;13.83;;;10.23;;
18166;SDS011;9208;42.688;23.404;2023-05-07T04:13:20;13.17;;;11.20;;
18166;SDS011;9208;42.688;23.404;2023-05-07T04:15:46;10.90;;;9.80;;
18166;SDS011;9208;42.688;23.404;2023-05-07T04:18:11;12.47;;;11.10;;
18166;SDS011;9208;42.688;23.404;2023-05-07T04:20:37;11.80;;;10.07;;
18166;SDS011;9208;42.688;23.404;2023-05-07T04:23:02;11.97;;;10.23;;
18166;SDS011;9208;42.688;23.404;2023-05-07T04:25:27;11.87;;;10.67;;
18166;SDS011;9208;42.688;23.404;2023-05-07T04:27:53;12.67;;;11.10;;
18166;SDS011;9208;42.688;23.404;2023-05-07T04:30:19;12.93;;;11.57;;
18166;SDS011;9208;42.688;23.404;2023-05-07T04:32:44;14.43;;;11.43;;
18166;SDS011;9208;42.688;23.404;2023-05-07T04:35:10;12.90;;;11.27;;
18166;SDS011;9208;42.688;23.404;2023-05-07T04:37:35;13.73;;;11.20;;
18166;SDS011;9208;42.688;23.404;2023-05-07T04:40:01;13.70;;;10.77;;
18166;SDS011;9208;42.688;23.404;2023-05-07T04:42:28;12.93;;;11.20;;
18166;SDS011;9208;42.688;23.404;2023-05-07T04:44:54;12.07;;;10.87;;
18166;SDS011;9208;42.688;23.404;2023-05-07T04:47:20;12.10;;;10.80;;
18166;SDS011;9208;42.688;23.404;2023-05-07T04:49:46;15.07;;;12.30;;
18166;SDS011;9208;42.688;23.404;2023-05-07T04:52:11;12.20;;;10.50;;
18166;SDS011;9208;42.688;23.404;2023-05-07T04:54:37;11.50;;;10.30;;
18166;SDS011;9208;42.688;23.404;2023-05-07T04:57:05;12.13;;;10.87;;
18166;SDS011;9208;42.688;23.404;2023-05-07T04:59:31;14.00;;;12.37;;
18166;SDS011;9208;42.688;23.404;2023-05-07T05:01:57;12.27;;;10.97;;
18166;SDS011;9208;42.688;23.404;2023-05-07T05:04:23;13.30;;;11.50;;
18166;SDS011;9208;42.688;23.404;2023-05-07T05:06:49;11.53;;;10.33;;
18166;SDS011;9208;42.688;23.404;2023-05-07T05:09:14;14.20;;;12.47;;
18166;SDS011;9208;42.688;23.404;2023-05-07T05:11:41;14.17;;;11.77;;
18166;SDS011;9208;42.688;23.404;2023-05-07T05:14:06;14.47;;;11.47;;
18166;SDS011;9208;42.688;23.404;2023-05-07T05:16:31;13.70;;;11.13;;
18166;SDS011;9208;42.688;23.404;2023-05-07T05:18:58;13.63;;;11.00;;
18166;SDS011;9208;42.688;23.404;2023-05-07T05:21:24;13.23;;;11.93;;
18166;SDS011;9208;42.688;23.404;2023-05-07T05:23:49;12.40;;;10.90;;
18166;SDS011;9208;42.688;23.404;2023-05-07T05:26:15;13.33;;;11.20;;
18166;SDS011;9208;42.688;23.404;2023-05-07T05:28:40;12.20;;;11.00;;
18166;SDS011;9208;42.688;23.404;2023-05-07T05:31:05;12.70;;;10.57;;
18166;SDS011;9208;42.688;23.404;2023-05-07T05:33:31;15.33;;;10.87;;
18166;SDS011;9208;42.688;23.404;2023-05-07T05:35:56;11.77;;;10.57;;
18166;SDS011;9208;42.688;23.404;2023-05-07T05:38:22;13.67;;;12.20;;
18166;SDS011;9208;42.688;23.404;2023-05-07T05:40:50;11.60;;;10.53;;
18166;SDS011;9208;42.688;23.404;2023-05-07T05:43:16;13.57;;;11.17;;
18166;SDS011;9208;42.688;23.404;2023-05-07T05:45:41;11.63;;;10.60;;
18166;SDS011;9208;42.688;23.404;2023-05-07T05:48:07;12.90;;;11.53;;
18166;SDS011;9208;42.688;23.404;2023-05-07T05:50:33;12.30;;;10.90;;
18166;SDS011;9208;42.688;23.404;2023-05-07T05:53:00;14.03;;;11.23;;
18166;SDS011;9208;42.688;23.404;2023-05-07T05:55:26;12.13;;;10.83;;
18166;SDS011;9208;42.688;23.404;2023-05-07T05:57:51;10.83;;;9.77;;
18166;SDS011;9208;42.688;23.404;2023-05-07T06:00:17;20.90;;;11.50;;
18166;SDS011;9208;42.688;23.404;2023-05-07T06:02:42;14.80;;;10.63;;
18166;SDS011;9208;42.688;23.404;2023-05-07T06:05:08;11.87;;;10.47;;
18166;SDS011;9208;42.688;23.404;2023-05-07T06:07:34;12.97;;;10.70;;
18166;SDS011;9208;42.688;23.404;2023-05-07T06:10:00;12.27;;;10.63;;
18166;SDS011;9208;42.688;23.404;2023-05-07T06:12:28;13.57;;;10.33;;
18166;SDS011;9208;42.688;23.404;2023-05-07T06:14:54;12.13;;;10.83;;
18166;SDS011;9208;42.688;23.404;2023-05-07T06:17:19;11.83;;;10.73;;
18166;SDS011;9208;42.688;23.404;2023-05-07T06:19:45;13.10;;;10.87;;
18166;SDS011;9208;42.688;23.404;2023-05-07T06:22:10;12.63;;;10.57;;
18166;SDS011;9208;42.688;23.404;2023-05-07T06:24:36;13.27;;;10.20;;
18166;SDS011;9208;42.688;23.404;2023-05-07T06:27:01;11.50;;;10.47;;
18166;SDS011;9208;42.688;23.404;2023-05-07T06:29:26;12.47;;;11.27;;
18166;SDS011;9208;42.688;23.404;2023-05-07T06:31:52;12.53;;;10.33;;
18166;SDS011;9208;42.688;23.404;2023-05-07T06:34:18;12.53;;;11.33;;
18166;SDS011;9208;42.688;23.404;2023-05-07T06:36:43;13.63;;;11.53;;
18166;SDS011;9208;42.688;23.404;2023-05-07T06:39:09;12.50;;;10.83;;
18166;SDS011;9208;42.688;23.404;2023-05-07T06:41:34;11.67;;;10.40;;
18166;SDS011;9208;42.688;23.404;2023-05-07T06:44:01;11.73;;;10.57;;
18166;SDS011;9208;42.688;23.404;2023-05-07T06:46:27;11.60;;;10.40;;
18166;SDS011;9208;42.688;23.404;2023-05-07T06:48:54;11.47;;;10.37;;
18166;SDS011;9208;42.688;23.404;2023-05-07T06:51:19;12.07;;;10.53;;
18166;SDS011;9208;42.688;23.404;2023-05-07T06:53:45;15.30;;;10.53;;
18166;SDS011;9208;42.688;23.404;2023-05-07T06:56:10;11.20;;;9.97;;
18166;SDS011;9208;42.688;23.404;2023-05-07T06:58:36;13.23;;;10.77;;
18166;SDS011;9208;42.688;23.404;2023-05-07T07:01:02;11.30;;;10.30;;
18166;SDS011;9208;42.688;23.404;2023-05-07T07:03:27;11.47;;;10.10;;
18166;SDS011;9208;42.688;23.404;2023-05-07T07:05:53;11.03;;;9.93;;
18166;SDS011;9208;42.688;23.404;2023-05-07T07:08:20;11.27;;;10.03;;
18166;SDS011;9208;42.688;23.404;2023-05-07T07:10:48;12.23;;;10.93;;
18166;SDS011;9208;42.688;23.404;2023-05-07T07:13:14;12.33;;;11.03;;
18166;SDS011;9208;42.688;23.404;2023-05-07T07:15:40;10.57;;;9.47;;
18166;SDS011;9208;42.688;23.404;2023-05-07T07:18:05;10.73;;;9.60;;
18166;SDS011;9208;42.688;23.404;2023-05-07T07:20:31;11.03;;;9.93;;
18166;SDS011;9208;42.688;23.404;2023-05-07T07:22:57;11.57;;;9.83;;
18166;SDS011;9208;42.688;23.404;2023-05-07T07:25:22;12.40;;;9.70;;
18166;SDS011;9208;42.688;23.404;2023-05-07T07:27:48;10.77;;;9.67;;
18166;SDS011;9208;42.688;23.404;2023-05-07T07:30:14;9.97;;;9.03;;
18166;SDS011;9208;42.688;23.404;2023-05-07T07:32:40;10.03;;;8.87;;
18166;SDS011;9208;42.688;23.404;2023-05-07T07:35:05;10.57;;;9.47;;
18166;SDS011;9208;42.688;23.404;2023-05-07T07:37:31;12.17;;;9.00;;
18166;SDS011;9208;42.688;23.404;2023-05-07T07:39:57;9.83;;;8.83;;
18166;SDS011;9208;42.688;23.404;2023-05-07T07:42:22;10.07;;;8.70;;
18166;SDS011;9208;42.688;23.404;2023-05-07T07:44:48;9.57;;;8.63;;
18166;SDS011;9208;42.688;23.404;2023-05-07T07:47:13;9.73;;;8.67;;
18166;SDS011;9208;42.688;23.404;2023-05-07T07:49:39;9.00;;;8.23;;
18166;SDS011;9208;42.688;23.404;2023-05-07T07:52:04;11.00;;;7.37;;
18166;SDS011;9208;42.688;23.404;2023-05-07T07:54:30;8.90;;;8.03;;
18166;SDS011;9208;42.688;23.404;2023-05-07T07:56:58;9.50;;;8.50;;
18166;SDS011;9208;42.688;23.404;2023-05-07T07:59:24;10.27;;;7.47;;
18166;SDS011;9208;42.688;23.404;2023-05-07T08:01:50;10.17;;;7.87;;
18166;SDS011;9208;42.688;23.404;2023-05-07T08:04:17;8.93;;;6.90;;
18166;SDS011;9208;42.688;23.404;2023-05-07T08:06:42;9.43;;;8.43;;
18166;SDS011;9208;42.688;23.404;2023-05-07T08:09:08;8.73;;;7.83;;
18166;SDS011;9208;42.688;23.404;2023-05-07T08:11:34;7.97;;;7.17;;
18166;SDS011;9208;42.688;23.404;2023-05-07T08:13:59;9.60;;;7.70;;
18166;SDS011;9208;42.688;23.404;2023-05-07T08:16:25;9.30;;;7.63;;
18166;SDS011;9208;42.688;23.404;2023-05-07T08:18:50;9.70;;;8.37;;
18166;SDS011;9208;42.688;23.404;2023-05-07T08:21:16;10.43;;;8.27;;
18166;SDS011;9208;42.688;23.404;2023-05-07T08:23:41;10.60;;;7.63;;
18166;SDS011;9208;42.688;23.404;2023-05-07T08:26:07;7.70;;;7.00;;
18166;SDS011;9208;42.688;23.404;2023-05-07T08:28:33;7.37;;;6.70;;
18166;SDS011;9208;42.688;23.404;2023-05-07T08:30:59;6.80;;;6.20;;
18166;SDS011;9208;42.688;23.404;2023-05-07T08:33:26;7.47;;;6.73;;
18166;SDS011;9208;42.688;23.404;2023-05-07T08:35:51;8.87;;;6.60;;
18166;SDS011;9208;42.688;23.404;2023-05-07T08:38:17;7.00;;;6.37;;
18166;SDS011;9208;42.688;23.404;2023-05-07T08:40:42;7.00;;;6.30;;
18166;SDS011;9208;42.688;23.404;2023-05-07T08:43:08;7.03;;;6.37;;
18166;SDS011;9208;42.688;23.404;2023-05-07T08:45:33;7.07;;;5.87;;
18166;SDS011;9208;42.688;23.404;2023-05-07T08:48:01;8.20;;;7.20;;
18166;SDS011;9208;42.688;23.404;2023-05-07T08:50:28;6.70;;;6.00;;
18166;SDS011;9208;42.688;23.404;2023-05-07T08:52:55;7.00;;;6.13;;
18166;SDS011;9208;42.688;23.404;2023-05-07T08:55:21;5.87;;;5.27;;
18166;SDS011;9208;42.688;23.404;2023-05-07T08:57:47;8.03;;;5.53;;
18166;SDS011;9208;42.688;23.404;2023-05-07T09:00:13;6.00;;;5.40;;
18166;SDS011;9208;42.688;23.404;2023-05-07T09:02:39;4.47;;;4.07;;
18166;SDS011;9208;42.688;23.404;2023-05-07T09:05:05;5.67;;;5.17;;
18166;SDS011;9208;42.688;23.404;2023-05-07T09:07:31;5.30;;;4.50;;
18166;SDS011;9208;42.688;23.404;2023-05-07T09:09:56;4.77;;;4.30;;
18166;SDS011;9208;42.688;23.404;2023-05-07T09:12:22;4.03;;;3.63;;
18166;SDS011;9208;42.688;23.404;2023-05-07T09:14:48;4.23;;;3.77;;
18166;SDS011;9208;42.688;23.404;2023-05-07T09:17:15;3.73;;;3.43;;
18166;SDS011;9208;42.688;23.404;2023-05-07T09:19:43;4.70;;;3.97;;
18166;SDS011;9208;42.688;23.404;2023-05-07T09:22:09;4.37;;;4.07;;
18166;SDS011;9208;42.688;23.404;2023-05-07T09:24:35;3.10;;;2.90;;
18166;SDS011;9208;42.688;23.404;2023-05-07T09:27:03;5.00;;;3.03;;
18166;SDS011;9208;42.688;23.404;2023-05-07T09:29:29;4.10;;;3.77;;
18166;SDS011;9208;42.688;23.404;2023-05-07T09:32:00;5.17;;;3.37;;
18166;SDS011;9208;42.688;23.404;2023-05-07T09:34:29;3.50;;;3.20;;
18166;SDS011;9208;42.688;23.404;2023-05-07T09:36:55;3.10;;;2.80;;
18166;SDS011;9208;42.688;23.404;2023-05-07T09:39:21;3.50;;;3.17;;
18166;SDS011;9208;42.688;23.404;2023-05-07T09:41:48;4.00;;;3.47;;
18166;SDS011;9208;42.688;23.404;2023-05-07T09:44:19;5.10;;;3.63;;
18166;SDS011;9208;42.688;23.404;2023-05-07T09:46:45;4.23;;;3.43;;
18166;SDS011;9208;42.688;23.404;2023-05-07T09:49:20;3.67;;;3.37;;
18166;SDS011;9208;42.688;23.404;2023-05-07T09:51:48;3.97;;;3.40;;
18166;SDS011;9208;42.688;23.404;2023-05-07T09:54:15;5.17;;;3.87;;
18166;SDS011;9208;42.688;23.404;2023-05-07T09:56:45;6.57;;;3.87;;
18166;SDS011;9208;42.688;23.404;2023-05-07T09:59:12;9.17;;;3.60;;
18166;SDS011;9208;42.688;23.404;2023-05-07T10:01:40;6.10;;;4.13;;
18166;SDS011;9208;42.688;23.404;2023-05-07T10:04:09;3.47;;;3.17;;
18166;SDS011;9208;42.688;23.404;2023-05-07T10:06:36;3.83;;;3.43;;
18166;SDS011;9208;42.688;23.404;2023-05-07T10:09:02;3.40;;;3.10;;
18166;SDS011;9208;42.688;23.404;2023-05-07T10:11:32;3.40;;;3.10;;
18166;SDS011;9208;42.688;23.404;2023-05-07T10:13:59;3.20;;;2.97;;
18166;SDS011;9208;42.688;23.404;2023-05-07T10:16:27;3.27;;;2.90;;
18166;SDS011;9208;42.688;23.404;2023-05-07T10:19:04;3.23;;;2.67;;
18166;SDS011;9208;42.688;23.404;2023-05-07T10:21:31;5.83;;;3.03;;
18166;SDS011;9208;42.688;23.404;2023-05-07T10:24:07;4.43;;;4.03;;
18166;SDS011;9208;42.688;23.404;2023-05-07T10:26:39;3.10;;;2.83;;
18166;SDS011;9208;42.688;23.404;2023-05-07T10:29:51;3.60;;;3.00;;
18166;SDS011;9208;42.688;23.404;2023-05-07T10:34:35;3.13;;;2.63;;
18166;SDS011;9208;42.688;23.404;2023-05-07T10:37:03;3.17;;;2.87;;
18166;SDS011;9208;42.688;23.404;2023-05-07T10:39:29;2.50;;;2.40;;
18166;SDS011;9208;42.688;23.404;2023-05-07T10:41:55;2.70;;;2.47;;
18166;SDS011;9208;42.688;23.404;2023-05-07T10:44:28;4.37;;;2.67;;
18166;SDS011;9208;42.688;23.404;2023-05-07T10:47:09;2.50;;;2.30;;
18166;SDS011;9208;42.688;23.404;2023-05-07T10:49:38;4.43;;;2.70;;
18166;SDS011;9208;42.688;23.404;2023-05-07T10:52:30;5.50;;;2.87;;
18166;SDS011;9208;42.688;23.404;2023-05-07T10:57:40;6.60;;;3.53;;
18166;SDS011;9208;42.688;23.404;2023-05-07T11:00:50;3.57;;;3.27;;
18166;SDS011;9208;42.688;23.404;2023-05-07T11:05:29;4.23;;;3.60;;
18166;SDS011;9208;42.688;23.404;2023-05-07T11:07:58;3.97;;;3.50;;
18166;SDS011;9208;42.688;23.404;2023-05-07T11:13:18;3.70;;;3.40;;
18166;SDS011;9208;42.688;23.404;2023-05-07T11:16:03;6.20;;;3.60;;
18166;SDS011;9208;42.688;23.404;2023-05-07T11:18:45;3.93;;;3.47;;
18166;SDS011;9208;42.688;23.404;2023-05-07T11:21:13;4.73;;;3.50;;
18166;SDS011;9208;42.688;23.404;2023-05-07T11:23:56;4.80;;;3.50;;
18166;SDS011;9208;42.688;23.404;2023-05-07T11:26:22;3.77;;;3.20;;
18166;SDS011;9208;42.688;23.404;2023-05-07T11:28:48;3.50;;;3.20;;
18166;SDS011;9208;42.688;23.404;2023-05-07T11:31:19;4.40;;;4.00;;
18166;SDS011;9208;42.688;23.404;2023-05-07T11:33:47;4.73;;;3.73;;
18166;SDS011;9208;42.688;23.404;2023-05-07T11:36:13;3.50;;;3.30;;
18166;SDS011;9208;42.688;23.404;2023-05-07T11:38:39;3.77;;;3.40;;
18166;SDS011;9208;42.688;23.404;2023-05-07T11:41:04;3.63;;;3.17;;
18166;SDS011;9208;42.688;23.404;2023-05-07T11:43:33;3.30;;;3.10;;
18166;SDS011;9208;42.688;23.404;2023-05-07T11:46:09;3.63;;;3.33;;
18166;SDS011;9208;42.688;23.404;2023-05-07T11:48:36;4.57;;;3.70;;
18166;SDS011;9208;42.688;23.404;2023-05-07T11:51:03;3.10;;;2.90;;
18166;SDS011;9208;42.688;23.404;2023-05-07T11:53:42;3.50;;;3.20;;
18166;SDS011;9208;42.688;23.404;2023-05-07T11:56:08;3.47;;;3.00;;
18166;SDS011;9208;42.688;23.404;2023-05-07T11:58:34;3.10;;;2.90;;
18166;SDS011;9208;42.688;23.404;2023-05-07T12:01:00;3.50;;;3.20;;
18166;SDS011;9208;42.688;23.404;2023-05-07T12:03:25;3.63;;;3.33;;
18166;SDS011;9208;42.688;23.404;2023-05-07T12:05:51;3.47;;;3.17;;
18166;SDS011;9208;42.688;23.404;2023-05-07T12:08:17;3.90;;;3.60;;
18166;SDS011;9208;42.688;23.404;2023-05-07T12:10:43;2.97;;;2.87;;
18166;SDS011;9208;42.688;23.404;2023-05-07T12:13:14;3.13;;;2.93;;
18166;SDS011;9208;42.688;23.404;2023-05-07T12:15:40;3.47;;;2.80;;
18166;SDS011;9208;42.688;23.404;2023-05-07T12:18:06;4.33;;;2.90;;
18166;SDS011;9208;42.688;23.404;2023-05-07T12:20:33;4.33;;;3.07;;
18166;SDS011;9208;42.688;23.404;2023-05-07T12:23:02;3.00;;;2.80;;
18166;SDS011;9208;42.688;23.404;2023-05-07T12:25:30;3.10;;;2.90;;
18166;SDS011;9208;42.688;23.404;2023-05-07T12:27:56;4.00;;;2.80;;
18166;SDS011;9208;42.688;23.404;2023-05-07T12:30:24;3.80;;;3.10;;
18166;SDS011;9208;42.688;23.404;2023-05-07T12:32:53;3.80;;;3.50;;
18166;SDS011;9208;42.688;23.404;2023-05-07T12:35:26;3.50;;;3.20;;
18166;SDS011;9208;42.688;23.404;2023-05-07T12:37:56;3.30;;;3.10;;
18166;SDS011;9208;42.688;23.404;2023-05-07T12:40:24;3.97;;;3.67;;
18166;SDS011;9208;42.688;23.404;2023-05-07T12:43:00;3.40;;;3.10;;
18166;SDS011;9208;42.688;23.404;2023-05-07T12:45:25;3.10;;;2.90;;
18166;SDS011;9208;42.688;23.404;2023-05-07T12:47:51;3.37;;;3.07;;
18166;SDS011;9208;42.688;23.404;2023-05-07T12:50:16;3.67;;;2.87;;
18166;SDS011;9208;42.688;23.404;2023-05-07T12:52:45;2.73;;;2.53;;
18166;SDS011;9208;42.688;23.404;2023-05-07T12:55:13;2.70;;;2.50;;
18166;SDS011;9208;42.688;23.404;2023-05-07T12:57:45;2.63;;;2.40;;
18166;SDS011;9208;42.688;23.404;2023-05-07T13:00:13;2.63;;;2.40;;
18166;SDS011;9208;42.688;23.404;2023-05-07T13:02:40;3.10;;;2.40;;
18166;SDS011;9208;42.688;23.404;2023-05-07T13:05:07;4.17;;;2.50;;
18166;SDS011;9208;42.688;23.404;2023-05-07T13:07:33;9.50;;;3.27;;
18166;SDS011;9208;42.688;23.404;2023-05-07T13:09:59;6.87;;;3.27;;
18166;SDS011;9208;42.688;23.404;2023-05-07T13:12:24;3.27;;;2.17;;
18166;SDS011;9208;42.688;23.404;2023-05-07T13:14:50;2.80;;;2.00;;
18166;SDS011;9208;42.688;23.404;2023-05-07T13:17:17;3.20;;;2.00;;
18166;SDS011;9208;42.688;23.404;2023-05-07T13:19:43;5.73;;;2.53;;
18166;SDS011;9208;42.688;23.404;2023-05-07T13:22:09;2.97;;;2.13;;
18166;SDS011;9208;42.688;23.404;2023-05-07T13:24:34;3.30;;;2.80;;
18166;SDS011;9208;42.688;23.404;2023-05-07T13:27:00;2.77;;;2.50;;
18166;SDS011;9208;42.688;23.404;2023-05-07T13:29:25;2.40;;;2.20;;
18166;SDS011;9208;42.688;23.404;2023-05-07T13:31:56;2.53;;;2.33;;
18166;SDS011;9208;42.688;23.404;2023-05-07T13:34:22;3.87;;;2.63;;
18166;SDS011;9208;42.688;23.404;2023-05-07T13:36:47;3.40;;;2.40;;
18166;SDS011;9208;42.688;23.404;2023-05-07T13:39:12;2.43;;;2.33;;
18166;SDS011;9208;42.688;23.404;2023-05-07T13:41:38;3.57;;;2.23;;
18166;SDS011;9208;42.688;23.404;2023-05-07T13:44:03;4.17;;;2.70;;
18166;SDS011;9208;42.688;23.404;2023-05-07T13:46:29;2.67;;;2.47;;
18166;SDS011;9208;42.688;23.404;2023-05-07T13:48:55;2.50;;;2.30;;
18166;SDS011;9208;42.688;23.404;2023-05-07T13:51:20;2.90;;;2.70;;
18166;SDS011;9208;42.688;23.404;2023-05-07T13:53:46;2.60;;;2.40;;
18166;SDS011;9208;42.688;23.404;2023-05-07T13:56:12;2.67;;;2.47;;
18166;SDS011;9208;42.688;23.404;2023-05-07T13:58:37;3.97;;;2.43;;
18166;SDS011;9208;42.688;23.404;2023-05-07T14:01:03;2.30;;;2.20;;
18166;SDS011;9208;42.688;23.404;2023-05-07T14:03:28;2.50;;;2.30;;
18166;SDS011;9208;42.688;23.404;2023-05-07T14:05:54;2.30;;;2.20;;
18166;SDS011;9208;42.688;23.404;2023-05-07T14:08:20;2.70;;;2.50;;
18166;SDS011;9208;42.688;23.404;2023-05-07T14:10:46;2.40;;;2.20;;
18166;SDS011;9208;42.688;23.404;2023-05-07T14:13:11;2.60;;;2.10;;
18166;SDS011;9208;42.688;23.404;2023-05-07T14:15:37;2.60;;;2.40;;
18166;SDS011;9208;42.688;23.404;2023-05-07T14:18:02;3.87;;;2.70;;
18166;SDS011;9208;42.688;23.404;2023-05-07T14:20:28;2.60;;;2.40;;
18166;SDS011;9208;42.688;23.404;2023-05-07T14:22:55;3.27;;;2.53;;
18166;SDS011;9208;42.688;23.404;2023-05-07T14:25:20;2.73;;;2.53;;
18166;SDS011;9208;42.688;23.404;2023-05-07T14:27:46;3.03;;;2.60;;
18166;SDS011;9208;42.688;23.404;2023-05-07T14:30:12;2.30;;;2.10;;
18166;SDS011;9208;42.688;23.404;2023-05-07T14:32:37;4.23;;;2.50;;
18166;SDS011;9208;42.688;23.404;2023-05-07T14:35:03;2.63;;;2.43;;
18166;SDS011;9208;42.688;23.404;2023-05-07T14:37:29;3.63;;;2.30;;
18166;SDS011;9208;42.688;23.404;2023-05-07T14:39:54;2.40;;;2.20;;
18166;SDS011;9208;42.688;23.404;2023-05-07T14:42:20;3.03;;;2.50;;
18166;SDS011;9208;42.688;23.404;2023-05-07T14:44:45;2.70;;;2.50;;
18166;SDS011;9208;42.688;23.404;2023-05-07T14:47:12;2.67;;;2.43;;
18166;SDS011;9208;42.688;23.404;2023-05-07T14:49:38;2.43;;;2.23;;